Time;durP1;ratioP1;P1;durP2;ratioP2;P2;SDS_P1;SDS_P2;PMS_P1;PMS_P2;Temp;Humidity;BMP_temperature;BMP_pressure;BME280_temperature;BME280_humidity;BME280_pressure;Samples;Min_cycle;Max_cycle;Signal;HPM_P1;HPM_P2
2023/01/06 00:00:08;;;;;;;;;;;;;;;;;;2106091;28;20137;-47
2023/01/06 00:01:11;;;;;;;4.20;3.58;;;;;;;;;;2105531;28;20060;-48
2023/01/06 00:02:12;;;;;;;6.68;3.90;;;;;;;;;;2105631;28;20044;-47
2023/01/06 00:03:13;;;;;;;3.83;3.27;;;;;;;;;;2105488;28;20485;-49
2023/01/06 00:04:14;;;;;;;4.97;3.15;;;;;;;;;;2105263;28;20439;-48
2023/01/06 00:05:15;;;;;;;6.35;3.13;;;;;;;;;;2105561;28;20560;-48
2023/01/06 00:06:17;;;;;;;7.30;2.90;;;;;;;;;;2105683;28;20124;-47
2023/01/06 00:07:18;;;;;;;4.43;2.67;;;;;;;;;;2105475;28;20056;-48
2023/01/06 00:08:19;;;;;;;3.87;2.90;;;;;;;;;;2105649;28;20465;-48
2023/01/06 00:09:20;;;;;;;4.15;2.80;;;;;;;;;;2105549;28;20507;-47
2023/01/06 00:10:21;;;;;;;3.57;2.50;;;;;;;;;;2105551;28;20094;-48
2023/01/06 00:11:23;;;;;;;4.40;2.60;;;;;;;;;;2105552;28;20048;-49
2023/01/06 00:12:25;;;;;;;4.95;2.75;;;;;;;;;;2105538;28;20062;-49
2023/01/06 00:13:26;;;;;;;3.25;2.10;;;;;;;;;;2105810;28;20105;-46
2023/01/06 00:14:27;;;;;;;3.30;2.10;;;;;;;;;;2105494;28;20051;-47
2023/01/06 00:15:29;;;;;;;3.78;2.28;;;;;;;;;;2105518;28;20044;-48
2023/01/06 00:16:30;;;;;;;2.75;2.22;;;;;;;;;;2105480;28;20059;-50
2023/01/06 00:17:31;;;;;;;3.25;2.30;;;;;;;;;;2105615;28;20048;-48
2023/01/06 00:18:32;;;;;;;3.03;2.13;;;;;;;;;;2105336;28;20054;-47
2023/01/06 00:19:33;;;;;;;2.90;2.30;;;;;;;;;;2105313;28;20448;-46
2023/01/06 00:20:34;;;;;;;3.87;2.30;;;;;;;;;;2105487;28;20059;-48
2023/01/06 00:21:35;;;;;;;3.03;1.83;;;;;;;;;;2105361;28;20110;-47
2023/01/06 00:22:38;;;;;;;3.78;2.20;;;;;;;;;;2106749;28;20120;-47
2023/01/06 00:23:39;;;;;;;3.22;2.10;;;;;;;;;;2113692;28;20055;-47
2023/01/06 00:24:40;;;;;;;4.73;2.47;;;;;;;;;;2113816;28;20507;-46
2023/01/06 00:25:47;;;;;;;2.72;1.95;;;;;;;;;;2113909;28;20044;-46
2023/01/06 00:26:49;;;;;;;5.72;2.30;;;;;;;;;;2113997;28;20052;-46
2023/01/06 00:27:50;;;;;;;4.25;2.00;;;;;;;;;;2113781;28;20051;-46
2023/01/06 00:28:51;;;;;;;3.35;2.20;;;;;;;;;;2113966;28;20078;-47
2023/01/06 00:29:52;;;;;;;3.22;2.38;;;;;;;;;;2113815;28;20044;-46
2023/01/06 00:30:54;;;;;;;3.23;2.07;;;;;;;;;;2113990;28;20178;-47
2023/01/06 00:31:55;;;;;;;4.50;2.22;;;;;;;;;;2113901;28;20186;-49
2023/01/06 00:32:56;;;;;;;3.97;2.13;;;;;;;;;;2113886;28;20623;-47
2023/01/06 00:33:57;;;;;;;3.60;2.30;;;;;;;;;;2111544;28;20044;-47
2023/01/06 00:34:58;;;;;;;3.53;1.63;;;;;;;;;;2105307;28;20051;-50
2023/01/06 00:35:59;;;;;;;3.42;2.10;;;;;;;;;;2105485;28;20480;-47
2023/01/06 00:37:00;;;;;;;3.75;1.80;;;;;;;;;;2105325;28;20097;-48
2023/01/06 00:38:01;;;;;;;3.55;2.22;;;;;;;;;;2105603;28;20036;-48
2023/01/06 00:39:02;;;;;;;3.22;2.20;;;;;;;;;;2105396;28;20120;-49
2023/01/06 00:40:03;;;;;;;5.35;1.58;;;;;;;;;;2105304;28;20404;-49
2023/01/06 00:42:02;;;;;;;3.80;2.10;;;;;;;;;;2105463;28;20109;-48
2023/01/06 00:42:27;;;;;;;3.60;2.00;;;;;;;;;;2105374;28;20074;-48
2023/01/06 00:43:30;;;;;;;2.58;2.13;;;;;;;;;;2105247;28;20056;-48
2023/01/06 00:44:31;;;;;;;3.63;2.38;;;;;;;;;;2105160;28;20066;-49
2023/01/06 00:45:33;;;;;;;3.60;1.90;;;;;;;;;;2105468;28;20051;-48
2023/01/06 00:46:33;;;;;;;4.25;1.88;;;;;;;;;;2105252;28;20051;-49
2023/01/06 00:47:35;;;;;;;2.97;2.03;;;;;;;;;;2105322;28;20102;-47
2023/01/06 00:48:36;;;;;;;2.42;1.60;;;;;;;;;;2105233;28;20044;-48
2023/01/06 00:49:37;;;;;;;2.05;1.77;;;;;;;;;;2105179;28;20059;-48
2023/01/06 00:50:38;;;;;;;2.38;1.88;;;;;;;;;;2105326;28;20051;-50
2023/01/06 00:51:39;;;;;;;2.42;1.80;;;;;;;;;;2105252;28;20079;-49
2023/01/06 00:52:41;;;;;;;3.10;1.70;;;;;;;;;;2105249;28;20048;-48
2023/01/06 00:53:42;;;;;;;3.58;2.05;;;;;;;;;;2105431;28;20044;-48
2023/01/06 00:54:43;;;;;;;2.75;1.85;;;;;;;;;;2105472;28;20105;-49
2023/01/06 00:55:44;;;;;;;3.53;1.70;;;;;;;;;;2105179;28;20117;-48
2023/01/06 00:56:46;;;;;;;2.53;1.65;;;;;;;;;;2105413;28;20158;-47
2023/01/06 00:57:51;;;;;;;3.03;2.08;;;;;;;;;;2105176;28;20138;-48
2023/01/06 00:58:52;;;;;;;2.63;1.70;;;;;;;;;;2105211;28;20404;-50
2023/01/06 00:59:53;;;;;;;3.00;1.60;;;;;;;;;;2105375;28;20131;-48
2023/01/06 01:00:54;;;;;;;1.80;1.50;;;;;;;;;;2105463;28;20052;-48
2023/01/06 01:01:56;;;;;;;1.93;1.50;;;;;;;;;;2105148;28;20098;-47
2023/01/06 01:02:57;;;;;;;2.67;1.67;;;;;;;;;;2105463;28;20082;-48
2023/01/06 01:03:59;;;;;;;1.98;1.70;;;;;;;;;;2105052;28;20107;-50
2023/01/06 01:05:00;;;;;;;3.33;1.65;;;;;;;;;;2105305;28;20059;-49
2023/01/06 01:06:01;;;;;;;3.80;1.83;;;;;;;;;;2105299;28;20044;-48
2023/01/06 01:07:03;;;;;;;3.35;1.77;;;;;;;;;;2105245;28;20043;-48
2023/01/06 01:08:04;;;;;;;2.97;1.92;;;;;;;;;;2105275;28;20040;-49
2023/01/06 01:09:06;;;;;;;1.83;1.23;;;;;;;;;;2105121;28;20040;-49
2023/01/06 01:10:07;;;;;;;;;;;;;;;;;;2105763;28;20044;-48
2023/01/06 01:11:09;;;;;;;4.57;1.60;;;;;;;;;;2106508;28;19928;-48
2023/01/06 01:12:10;;;;;;;2.30;1.65;;;;;;;;;;2106558;28;20048;-48
2023/01/06 01:13:12;;;;;;;3.78;1.70;;;;;;;;;;2106575;28;20605;-48
2023/01/06 01:14:14;;;;;;;2.88;1.52;;;;;;;;;;2106604;28;20047;-47
2023/01/06 01:15:15;;;;;;;1.88;1.52;;;;;;;;;;2106721;28;20051;-47
2023/01/06 01:16:16;;;;;;;2.92;1.80;;;;;;;;;;2106697;28;20097;-48
2023/01/06 01:17:18;;;;;;;2.40;1.63;;;;;;;;;;2106626;28;20068;-48
2023/01/06 01:18:19;;;;;;;2.92;2.10;;;;;;;;;;2106529;28;20272;-48
2023/01/06 01:19:20;;;;;;;2.23;1.60;;;;;;;;;;2112015;28;20085;-47
2023/01/06 01:20:22;;;;;;;3.13;1.63;;;;;;;;;;2114947;28;20050;-47
2023/01/06 01:21:23;;;;;;;3.80;1.60;;;;;;;;;;2114958;28;20409;-48
2023/01/06 01:22:24;;;;;;;3.90;1.80;;;;;;;;;;2115111;28;20274;-46
2023/01/06 01:23:25;;;;;;;4.10;2.08;;;;;;;;;;2114908;28;20051;-48
2023/01/06 01:24:27;;;;;;;3.90;2.13;;;;;;;;;;2114888;28;20066;-47
2023/01/06 01:25:27;;;;;;;3.20;1.67;;;;;;;;;;2114912;28;20058;-48
2023/01/06 01:26:29;;;;;;;2.92;1.70;;;;;;;;;;2115102;28;20051;-47
2023/01/06 01:27:30;;;;;;;2.92;1.80;;;;;;;;;;2115043;28;20062;-47
2023/01/06 01:28:32;;;;;;;2.40;1.33;;;;;;;;;;2115229;28;20059;-46
2023/01/06 01:29:33;;;;;;;3.15;1.63;;;;;;;;;;2115005;28;20092;-46
2023/01/06 01:30:34;;;;;;;2.75;1.50;;;;;;;;;;2115018;28;20085;-46
2023/01/06 01:31:35;;;;;;;1.97;1.30;;;;;;;;;;2115093;28;20048;-47
2023/01/06 01:32:36;;;;;;;2.53;1.60;;;;;;;;;;2115310;28;20048;-46
2023/01/06 01:33:37;;;;;;;2.67;1.70;;;;;;;;;;2114914;28;20492;-47
2023/01/06 01:34:38;;;;;;;2.33;1.67;;;;;;;;;;2106648;28;20051;-47
2023/01/06 01:35:39;;;;;;;3.13;1.42;;;;;;;;;;2106458;28;20507;-47
2023/01/06 01:36:41;;;;;;;2.88;1.60;;;;;;;;;;2106506;28;20071;-47
2023/01/06 01:37:42;;;;;;;2.20;1.60;;;;;;;;;;2106460;28;20450;-48
2023/01/06 01:38:43;;;;;;;2.63;1.40;;;;;;;;;;2106366;28;20404;-47
2023/01/06 01:39:44;;;;;;;1.38;1.00;;;;;;;;;;2106755;28;20044;-47
2023/01/06 01:40:46;;;;;;;2.92;1.40;;;;;;;;;;2106444;28;20044;-47
2023/01/06 01:41:47;;;;;;;1.83;1.00;;;;;;;;;;2106708;28;20149;-46
2023/01/06 01:42:48;;;;;;;2.92;1.23;;;;;;;;;;2106439;28;20531;-45
2023/01/06 01:43:51;;;;;;;2.00;1.27;;;;;;;;;;2106299;28;20135;-46
2023/01/06 01:44:54;;;;;;;2.17;1.00;;;;;;;;;;2106399;28;20052;-48
2023/01/06 01:45:55;;;;;;;1.80;1.02;;;;;;;;;;2106388;28;20048;-48
2023/01/06 01:46:56;;;;;;;1.02;0.73;;;;;;;;;;2106456;28;20044;-48
2023/01/06 01:47:59;;;;;;;1.23;0.80;;;;;;;;;;2106511;28;20047;-48
2023/01/06 01:49:02;;;;;;;2.28;1.27;;;;;;;;;;2106449;28;20089;-47
2023/01/06 01:50:06;;;;;;;2.95;2.10;;;;;;;;;;2106900;28;20040;-47
2023/01/06 01:51:08;;;;;;;3.05;2.30;;;;;;;;;;2106380;28;20047;-45
2023/01/06 01:52:09;;;;;;;;;;;;;;;;;;2106853;28;20042;-46
2023/01/06 01:53:13;;;;;;;2.55;2.08;;;;;;;;;;2106490;28;20010;-46
2023/01/06 01:54:14;;;;;;;4.43;2.40;;;;;;;;;;2106284;28;20040;-45
2023/01/06 01:55:15;;;;;;;;;;;;;;;;;;2106822;28;20496;-46
2023/01/06 01:56:20;;;;;;;3.67;2.63;;;;;;;;;;2106303;28;19955;-45
2023/01/06 01:57:24;;;;;;;3.40;2.67;;;;;;;;;;2106567;28;20052;-46
2023/01/06 01:58:27;;;;;;;3.97;3.00;;;;;;;;;;2106390;28;20040;-46
2023/01/06 01:59:31;;;;;;;2.92;2.30;;;;;;;;;;2106281;28;20089;-45
2023/01/06 02:00:32;;;;;;;4.22;2.45;;;;;;;;;;2106350;28;20450;-46
2023/01/06 02:01:33;;;;;;;4.38;3.67;;;;;;;;;;2106386;28;20067;-46
2023/01/06 02:02:35;;;;;;;4.25;3.25;;;;;;;;;;2106442;28;20090;-47
2023/01/06 02:03:36;;;;;;;3.70;3.17;;;;;;;;;;2106601;28;20059;-46
2023/01/06 02:04:40;;;;;;;5.13;3.63;;;;;;;;;;2106215;28;20659;-48
2023/01/06 02:05:44;;;;;;;5.13;3.78;;;;;;;;;;2106378;28;20040;-46
2023/01/06 02:06:49;;;;;;;4.93;3.53;;;;;;;;;;2106460;28;20052;-47
2023/01/06 02:07:50;;;;;;;5.97;4.40;;;;;;;;;;2106188;28;20480;-47
2023/01/06 02:08:54;;;;;;;4.47;3.92;;;;;;;;;;2106271;28;20051;-47
2023/01/06 02:09:59;;;;;;;6.22;4.13;;;;;;;;;;2106510;28;20048;-47
2023/01/06 02:11:00;;;;;;;6.47;4.43;;;;;;;;;;2106350;28;20044;-47
2023/01/06 02:12:01;;;;;;;6.60;4.53;;;;;;;;;;2106129;28;20055;-48
2023/01/06 02:13:02;;;;;;;5.13;4.22;;;;;;;;;;2106642;28;20055;-48
2023/01/06 02:14:07;;;;;;;4.95;3.80;;;;;;;;;;2106128;28;20048;-51
2023/01/06 02:15:16;;;;;;;6.85;4.80;;;;;;;;;;2107890;28;20071;-48
2023/01/06 02:16:21;;;;;;;5.15;4.22;;;;;;;;;;2114649;28;20043;-51
2023/01/06 02:17:47;;;;;;;4.07;3.63;;;;;;;;;;2114709;28;20048;-49
2023/01/06 02:18:52;;;;;;;5.90;4.18;;;;;;;;;;2114783;28;20058;-48
2023/01/06 02:20:14;;;;;;;4.97;3.90;;;;;;;;;;2114630;28;20043;-48
2023/01/06 02:21:20;;;;;;;4.68;3.90;;;;;;;;;;2114448;28;20043;-47
2023/01/06 02:22:32;;;;;;;4.00;3.40;;;;;;;;;;2114929;28;20047;-47
2023/01/06 02:23:52;;;;;;;4.78;3.53;;;;;;;;;;2114443;28;20048;-49
2023/01/06 02:25:11;;;;;;;4.60;3.55;;;;;;;;;;2114905;28;20043;-47
2023/01/06 02:26:27;;;;;;;5.95;3.80;;;;;;;;;;2113979;28;20051;-47
2023/01/06 02:27:49;;;;;;;4.57;3.53;;;;;;;;;;2114460;28;20091;-47
2023/01/06 02:29:03;;;;;;;4.60;3.80;;;;;;;;;;2114611;28;20047;-47
2023/01/06 02:30:22;;;;;;;4.72;3.70;;;;;;;;;;2114517;28;20046;-47
2023/01/06 02:31:37;;;;;;;6.28;3.53;;;;;;;;;;2114665;28;20052;-47
2023/01/06 02:32:46;;;;;;;6.07;4.25;;;;;;;;;;2114692;28;20052;-47
2023/01/06 02:33:50;;;;;;;4.20;3.58;;;;;;;;;;2113420;28;20040;-48
2023/01/06 02:35:01;;;;;;;5.68;4.00;;;;;;;;;;2106199;28;20048;-47
2023/01/06 02:36:13;;;;;;;4.80;3.60;;;;;;;;;;2106273;28;20048;-50
2023/01/06 02:37:19;;;;;;;5.03;3.58;;;;;;;;;;2106220;28;20044;-47
2023/01/06 02:38:27;;;;;;;5.90;4.15;;;;;;;;;;2106107;28;20047;-50
2023/01/06 02:39:33;;;;;;;4.35;3.83;;;;;;;;;;2106609;28;20097;-49
2023/01/06 02:40:40;;;;;;;4.60;3.38;;;;;;;;;;2106185;28;20052;-49
2023/01/06 02:41:42;;;;;;;4.07;3.35;;;;;;;;;;2106208;28;20092;-48
2023/01/06 02:42:51;;;;;;;3.42;3.00;;;;;;;;;;2106077;28;20048;-49
2023/01/06 02:43:59;;;;;;;3.67;3.08;;;;;;;;;;2106046;28;20426;-50
2023/01/06 02:45:03;;;;;;;3.47;2.90;;;;;;;;;;2106036;28;20052;-50
2023/01/06 02:46:09;;;;;;;3.97;3.15;;;;;;;;;;2106056;28;20043;-50
2023/01/06 02:47:12;;;;;;;4.00;3.20;;;;;;;;;;2106246;28;20051;-49
2023/01/06 02:48:17;;;;;;;3.53;2.50;;;;;;;;;;2105864;28;20547;-48
2023/01/06 02:49:23;;;;;;;3.42;3.10;;;;;;;;;;2105993;28;20420;-48
2023/01/06 02:50:28;;;;;;;3.20;2.80;;;;;;;;;;2106057;28;20048;-48
2023/01/06 02:51:30;;;;;;;3.47;2.50;;;;;;;;;;2105955;28;20488;-49
2023/01/06 02:52:35;;;;;;;3.42;2.58;;;;;;;;;;2105969;28;20101;-47
2023/01/06 02:53:40;;;;;;;4.00;2.58;;;;;;;;;;2105845;28;20058;-48
2023/01/06 02:54:43;;;;;;;3.78;3.00;;;;;;;;;;2105888;28;20062;-48
2023/01/06 02:55:45;;;;;;;3.17;2.72;;;;;;;;;;2106014;28;20048;-48
2023/01/06 02:56:48;;;;;;;4.25;2.90;;;;;;;;;;2106183;28;20052;-50
2023/01/06 02:57:51;;;;;;;2.33;2.00;;;;;;;;;;2106049;28;20480;-48
2023/01/06 02:58:54;;;;;;;2.53;2.25;;;;;;;;;;2106098;28;20509;-48
2023/01/06 02:59:59;;;;;;;4.10;2.88;;;;;;;;;;2105992;28;20048;-49
2023/01/06 03:01:02;;;;;;;3.00;2.60;;;;;;;;;;2105896;28;20052;-48
2023/01/06 03:02:03;;;;;;;3.95;3.10;;;;;;;;;;2106020;28;20047;-47
2023/01/06 03:03:08;;;;;;;3.45;3.10;;;;;;;;;;2105936;28;20159;-48
2023/01/06 03:04:10;;;;;;;3.30;2.90;;;;;;;;;;2105723;28;20036;-47
2023/01/06 03:05:14;;;;;;;4.07;3.67;;;;;;;;;;2106160;28;20048;-47
2023/01/06 03:06:16;;;;;;;4.03;3.30;;;;;;;;;;2105992;28;20048;-47
2023/01/06 03:07:19;;;;;;;3.45;2.88;;;;;;;;;;2106056;28;20089;-48
2023/01/06 03:08:23;;;;;;;3.47;3.17;;;;;;;;;;2105856;28;20047;-47
2023/01/06 03:09:26;;;;;;;3.83;3.00;;;;;;;;;;2105931;28;20102;-47
2023/01/06 03:10:29;;;;;;;4.20;3.13;;;;;;;;;;2106021;28;20039;-47
2023/01/06 03:11:31;;;;;;;4.57;3.03;;;;;;;;;;2108381;28;20400;-47
2023/01/06 03:12:35;;;;;;;3.72;3.22;;;;;;;;;;2114428;28;20056;-48
2023/01/06 03:13:39;;;;;;;3.92;3.45;;;;;;;;;;2114353;28;20043;-47
2023/01/06 03:14:43;;;;;;;4.22;3.30;;;;;;;;;;2114394;28;20047;-47
2023/01/06 03:15:44;;;;;;;5.70;3.55;;;;;;;;;;2114193;28;20091;-47
2023/01/06 03:16:45;;;;;;;3.80;3.40;;;;;;;;;;2114387;28;20377;-48
2023/01/06 03:17:46;;;;;;;4.03;3.58;;;;;;;;;;2114396;28;20276;-47
2023/01/06 03:18:49;;;;;;;4.35;3.95;;;;;;;;;;2114578;28;20491;-47
2023/01/06 03:19:50;;;;;;;3.63;3.00;;;;;;;;;;2114385;28;20044;-46
2023/01/06 03:20:53;;;;;;;3.97;3.40;;;;;;;;;;2114349;28;20051;-46
2023/01/06 03:21:55;;;;;;;4.82;4.18;;;;;;;;;;2114143;28;20063;-47
2023/01/06 03:22:56;;;;;;;4.90;3.70;;;;;;;;;;2114440;28;20044;-49
2023/01/06 03:23:57;;;;;;;4.68;3.88;;;;;;;;;;2114214;28;20130;-49
2023/01/06 03:24:59;;;;;;;4.95;4.20;;;;;;;;;;2114464;28;20083;-47
2023/01/06 03:26:00;;;;;;;4.93;4.13;;;;;;;;;;2114256;28;20050;-48
2023/01/06 03:27:02;;;;;;;4.93;4.20;;;;;;;;;;2114422;28;20039;-48
2023/01/06 03:28:03;;;;;;;5.30;4.32;;;;;;;;;;2114212;28;20751;-48
2023/01/06 03:29:06;;;;;;;5.13;4.53;;;;;;;;;;2114160;28;20044;-47
2023/01/06 03:30:09;;;;;;;5.13;4.00;;;;;;;;;;2114171;28;20429;-46
2023/01/06 03:31:13;;;;;;;5.18;4.30;;;;;;;;;;2114094;28;20755;-48
2023/01/06 03:32:19;;;;;;;5.68;4.78;;;;;;;;;;2114408;28;20508;-47
2023/01/06 03:33:22;;;;;;;5.35;4.70;;;;;;;;;;2113515;28;20111;-48
2023/01/06 03:34:31;;;;;;;6.05;4.88;;;;;;;;;;2108075;28;20098;-49
2023/01/06 03:35:38;;;;;;;6.30;5.20;;;;;;;;;;2105696;28;20040;-48
2023/01/06 03:36:45;;;;;;;5.68;4.55;;;;;;;;;;2105908;28;20082;-48
2023/01/06 03:37:51;;;;;;;7.40;4.60;;;;;;;;;;2105712;28;20048;-49
2023/01/06 03:38:55;;;;;;;5.70;4.68;;;;;;;;;;2106030;28;20048;-48
2023/01/06 03:39:58;;;;;;;5.30;4.70;;;;;;;;;;2105713;28;20436;-50
2023/01/06 03:41:01;;;;;;;5.97;4.60;;;;;;;;;;2106234;28;20109;-49
2023/01/06 03:43:43;;;;;;;5.88;4.88;;;;;;;;;;2105611;28;20051;-48
2023/01/06 03:44:45;;;;;;;6.00;4.68;;;;;;;;;;2105804;28;20050;-46
2023/01/06 03:45:55;;;;;;;6.15;5.43;;;;;;;;;;2105843;28;20044;-48
2023/01/06 03:47:02;;;;;;;6.80;5.60;;;;;;;;;;2105855;28;20047;-48
2023/01/06 03:48:07;;;;;;;5.82;5.07;;;;;;;;;;2105701;28;20109;-48
2023/01/06 03:49:14;;;;;;;7.50;5.45;;;;;;;;;;2105566;28;20044;-49
2023/01/06 03:50:17;;;;;;;6.57;5.88;;;;;;;;;;2105648;28;20546;-46
2023/01/06 03:51:24;;;;;;;6.60;5.80;;;;;;;;;;2105672;28;20052;-48
2023/01/06 03:52:28;;;;;;;7.35;6.28;;;;;;;;;;2105632;28;20048;-47
2023/01/06 03:53:33;;;;;;;7.63;6.30;;;;;;;;;;2105630;28;20101;-47
2023/01/06 03:54:37;;;;;;;6.90;5.32;;;;;;;;;;2105692;28;20404;-48
2023/01/06 03:55:42;;;;;;;7.53;6.13;;;;;;;;;;2105543;28;20056;-48
2023/01/06 03:56:45;;;;;;;7.25;5.35;;;;;;;;;;2105678;28;20052;-47
2023/01/06 03:57:48;;;;;;;8.90;5.43;;;;;;;;;;2105668;28;20048;-46
2023/01/06 03:58:51;;;;;;;7.53;6.35;;;;;;;;;;2105559;28;20051;-48
2023/01/06 03:59:54;;;;;;;9.43;6.32;;;;;;;;;;2105776;28;20512;-47
2023/01/06 04:00:56;;;;;;;9.00;6.55;;;;;;;;;;2105762;28;20051;-46
2023/01/06 04:01:57;;;;;;;;;;;;;;;;;;2106033;28;20052;-47
2023/01/06 04:02:59;;;;;;;7.68;5.60;;;;;;;;;;2105610;28;19923;-46
2023/01/06 04:04:00;;;;;;;8.98;6.32;;;;;;;;;;2105516;28;20052;-47
2023/01/06 04:05:04;;;;;;;7.93;6.30;;;;;;;;;;2105534;28;20093;-46
2023/01/06 04:06:05;;;;;;;7.97;5.60;;;;;;;;;;2105658;28;20040;-47
2023/01/06 04:07:06;;;;;;;8.05;6.03;;;;;;;;;;2105740;28;20051;-47
2023/01/06 04:08:07;;;;;;;10.10;5.38;;;;;;;;;;2111170;28;20043;-46
2023/01/06 04:09:08;;;;;;;8.40;6.13;;;;;;;;;;2113984;28;20404;-47
2023/01/06 04:10:10;;;;;;;9.27;6.85;;;;;;;;;;2114090;28;20046;-47
2023/01/06 04:12:37;;;;;;;8.82;6.70;;;;;;;;;;2113891;28;20036;-46
2023/01/06 04:12:38;;;;;;;7.57;5.40;;;;;;;;;;2114064;28;20393;-46
2023/01/06 04:13:38;;;;;;;8.75;6.68;;;;;;;;;;2113835;28;20050;-49
2023/01/06 04:14:40;;;;;;;7.43;5.30;;;;;;;;;;2114384;28;20511;-46
2023/01/06 04:15:41;;;;;;;6.90;6.05;;;;;;;;;;2113953;28;20047;-46
2023/01/06 04:16:42;;;;;;;8.57;6.80;;;;;;;;;;2114084;28;20052;-47
2023/01/06 04:17:43;;;;;;;8.93;5.68;;;;;;;;;;2113988;28;20051;-47
2023/01/06 04:18:45;;;;;;;7.72;5.65;;;;;;;;;;2114260;28;20092;-49
2023/01/06 04:19:46;;;;;;;7.78;6.75;;;;;;;;;;2114014;28;20059;-46
2023/01/06 04:20:47;;;;;;;7.10;5.43;;;;;;;;;;2114029;28;20040;-45
2023/01/06 04:21:49;;;;;;;8.82;6.03;;;;;;;;;;2114055;28;20146;-47
2023/01/06 04:22:52;;;;;;;8.63;6.75;;;;;;;;;;2113811;28;20055;-45
2023/01/06 04:23:53;;;;;;;8.15;6.50;;;;;;;;;;2113847;28;20484;-46
2023/01/06 04:24:54;;;;;;;9.48;6.65;;;;;;;;;;2113877;28;20043;-46
2023/01/06 04:25:55;;;;;;;8.52;7.03;;;;;;;;;;2113931;28;20055;-46
2023/01/06 04:26:56;;;;;;;9.82;6.38;;;;;;;;;;2114015;28;20048;-46
2023/01/06 04:27:57;;;;;;;9.18;6.28;;;;;;;;;;2114086;28;20052;-46
2023/01/06 04:28:58;;;;;;;9.10;6.85;;;;;;;;;;2113717;28;20507;-46
2023/01/06 04:29:59;;;;;;;8.65;5.47;;;;;;;;;;2114020;28;20047;-45
2023/01/06 04:31:00;;;;;;;9.40;7.63;;;;;;;;;;2114025;28;20054;-46
2023/01/06 04:32:02;;;;;;;8.40;5.85;;;;;;;;;;2113904;28;20063;-46
2023/01/06 04:33:02;;;;;;;8.80;6.13;;;;;;;;;;2114056;28;20058;-46
2023/01/06 04:34:04;;;;;;;8.18;6.63;;;;;;;;;;2111431;28;20505;-45
2023/01/06 04:35:05;;;;;;;7.53;5.95;;;;;;;;;;2113921;28;20035;-46
2023/01/06 04:36:08;;;;;;;8.75;7.10;;;;;;;;;;2113854;28;20048;-47
2023/01/06 04:37:09;;;;;;;9.07;6.80;;;;;;;;;;2113837;28;20047;-46
2023/01/06 04:38:11;;;;;;;10.60;8.48;;;;;;;;;;2113741;28;20071;-46
2023/01/06 04:39:11;;;;;;;9.65;6.43;;;;;;;;;;2113772;28;20400;-47
2023/01/06 04:40:13;;;;;;;11.57;6.73;;;;;;;;;;2113774;28;20055;-46
2023/01/06 04:41:13;;;;;;;12.25;9.02;;;;;;;;;;2113989;28;20090;-46
2023/01/06 04:42:15;;;;;;;8.48;5.65;;;;;;;;;;2114160;28;20188;-46
2023/01/06 04:43:16;;;;;;;10.82;8.38;;;;;;;;;;2113996;28;20044;-46
2023/01/06 04:44:18;;;;;;;10.45;7.47;;;;;;;;;;2113860;28;20047;-46
2023/01/06 04:45:19;;;;;;;11.32;7.97;;;;;;;;;;2114276;28;20488;-46
2023/01/06 04:46:20;;;;;;;10.73;8.20;;;;;;;;;;2115524;28;20044;-46
2023/01/06 04:47:21;;;;;;;10.85;7.38;;;;;;;;;;2115295;28;20540;-46
2023/01/06 04:48:22;;;;;;;10.55;7.25;;;;;;;;;;2115816;28;20051;-47
2023/01/06 04:49:23;;;;;;;13.02;8.02;;;;;;;;;;2115471;28;20052;-49
2023/01/06 04:50:24;;;;;;;13.18;9.93;;;;;;;;;;2115454;28;20108;-49
2023/01/06 04:51:25;;;;;;;12.25;7.47;;;;;;;;;;2115256;28;20399;-47
2023/01/06 04:52:27;;;;;;;13.73;9.35;;;;;;;;;;2115447;28;20054;-47
2023/01/06 04:53:28;;;;;;;14.05;10.13;;;;;;;;;;2115047;28;20446;-48
2023/01/06 04:54:29;;;;;;;13.53;10.40;;;;;;;;;;2115299;28;20071;-46
2023/01/06 04:55:30;;;;;;;13.20;7.75;;;;;;;;;;2115364;28;20204;-47
2023/01/06 04:56:31;;;;;;;14.27;8.73;;;;;;;;;;2109183;28;20048;-47
2023/01/06 04:57:32;;;;;;;12.57;9.50;;;;;;;;;;2106964;28;20048;-49
2023/01/06 04:58:35;;;;;;;13.38;8.93;;;;;;;;;;2106898;28;20040;-45
2023/01/06 04:59:36;;;;;;;14.15;8.55;;;;;;;;;;2106868;28;20071;-46
2023/01/06 05:00:37;;;;;;;16.37;10.10;;;;;;;;;;2106881;28;20059;-48
2023/01/06 05:01:38;;;;;;;14.07;10.13;;;;;;;;;;2107046;28;20055;-46
2023/01/06 05:02:39;;;;;;;13.88;8.35;;;;;;;;;;2106995;28;20139;-49
2023/01/06 05:03:40;;;;;;;13.52;10.18;;;;;;;;;;2106742;28;20047;-47
2023/01/06 05:04:41;;;;;;;15.00;8.48;;;;;;;;;;2106968;28;20048;-46
2023/01/06 05:05:48;;;;;;;14.13;10.98;;;;;;;;;;2106971;28;20051;-46
2023/01/06 05:06:49;;;;;;;15.03;9.10;;;;;;;;;;2106932;28;20753;-48
2023/01/06 05:07:53;;;;;;;13.70;8.95;;;;;;;;;;2106678;28;20051;-47
2023/01/06 05:08:54;;;;;;;13.32;9.85;;;;;;;;;;2106603;28;20048;-46
2023/01/06 05:09:55;;;;;;;13.02;8.40;;;;;;;;;;2106876;28;20044;-46
2023/01/06 05:10:58;;;;;;;13.70;9.27;;;;;;;;;;2106774;28;20044;-46
2023/01/06 05:11:59;;;;;;;15.55;11.65;;;;;;;;;;2106647;28;20052;-46
2023/01/06 05:13:00;;;;;;;12.97;8.07;;;;;;;;;;2106750;28;20479;-46
2023/01/06 05:14:01;;;;;;;13.13;10.00;;;;;;;;;;2106636;28;20048;-45
2023/01/06 05:15:02;;;;;;;13.25;8.68;;;;;;;;;;2106704;28;20400;-46
2023/01/06 05:16:05;;;;;;;15.05;10.80;;;;;;;;;;2106732;28;20054;-46
2023/01/06 05:17:06;;;;;;;17.00;9.75;;;;;;;;;;2106878;28;20044;-46
2023/01/06 05:18:07;;;;;;;18.15;11.00;;;;;;;;;;2106723;28;20050;-46
2023/01/06 05:19:08;;;;;;;13.47;8.00;;;;;;;;;;2106663;28;20101;-46
2023/01/06 05:20:09;;;;;;;14.55;10.15;;;;;;;;;;2106551;28;20451;-46
2023/01/06 05:21:10;;;;;;;13.45;8.20;;;;;;;;;;2106597;28;20044;-46
2023/01/06 05:22:11;;;;;;;13.95;9.77;;;;;;;;;;2106709;28;20044;-45
2023/01/06 05:23:13;;;;;;;13.38;9.82;;;;;;;;;;2106384;28;20135;-45
2023/01/06 05:24:14;;;;;;;14.00;8.48;;;;;;;;;;2106603;28;20039;-49
2023/01/06 05:25:15;;;;;;;12.20;7.97;;;;;;;;;;2106665;28;20055;-45
2023/01/06 05:26:17;;;;;;;14.55;10.50;;;;;;;;;;2106708;28;20318;-45
2023/01/06 05:27:18;;;;;;;11.77;8.55;;;;;;;;;;2106807;28;20460;-47
2023/01/06 05:28:20;;;;;;;14.18;9.27;;;;;;;;;;2106585;28;20075;-47
2023/01/06 05:29:21;;;;;;;15.35;11.68;;;;;;;;;;2106840;28;20048;-45
2023/01/06 05:30:22;;;;;;;14.65;9.25;;;;;;;;;;2106477;28;20052;-46
2023/01/06 05:31:23;;;;;;;15.70;8.93;;;;;;;;;;2106916;28;20485;-46
2023/01/06 05:32:24;;;;;;;16.23;10.85;;;;;;;;;;2106624;28;20067;-46
2023/01/06 05:33:25;;;;;;;14.97;11.10;;;;;;;;;;2106516;28;20552;-48
2023/01/06 05:34:26;;;;;;;12.55;7.88;;;;;;;;;;2106378;28;20048;-46
2023/01/06 05:35:28;;;;;;;13.57;8.88;;;;;;;;;;2106709;28;20480;-48
2023/01/06 05:36:28;;;;;;;13.05;9.32;;;;;;;;;;2106307;28;20048;-48
2023/01/06 05:37:30;;;;;;;12.63;7.97;;;;;;;;;;2106709;28;20453;-48
2023/01/06 05:38:31;;;;;;;14.70;11.02;;;;;;;;;;2107066;28;20516;-47
2023/01/06 05:39:35;;;;;;;13.75;7.53;;;;;;;;;;2106863;28;20044;-47
2023/01/06 05:40:36;;;;;;;14.48;10.50;;;;;;;;;;2106665;28;20044;-48
2023/01/06 05:41:37;;;;;;;16.58;9.38;;;;;;;;;;2106448;28;20305;-47
2023/01/06 05:42:38;;;;;;;16.10;10.00;;;;;;;;;;2106552;28;20044;-47
2023/01/06 05:43:39;;;;;;;14.57;9.53;;;;;;;;;;2106432;28;20099;-48
2023/01/06 05:44:40;;;;;;;16.98;12.10;;;;;;;;;;2106439;28;20051;-47
2023/01/06 05:45:41;;;;;;;16.73;9.67;;;;;;;;;;2106696;28;20048;-46
2023/01/06 05:46:42;;;;;;;14.90;8.95;;;;;;;;;;2106465;28;20143;-46
2023/01/06 05:47:43;;;;;;;14.00;8.80;;;;;;;;;;2106536;28;20060;-46
2023/01/06 05:48:44;;;;;;;16.52;11.63;;;;;;;;;;2106586;28;20121;-46
2023/01/06 05:49:45;;;;;;;15.07;8.35;;;;;;;;;;2106898;28;20480;-49
2023/01/06 05:50:47;;;;;;;;;;;;;;;;;;2107189;28;20072;-47
2023/01/06 05:51:48;;;;;;;15.50;8.52;;;;;;;;;;2106475;28;19920;-47
2023/01/06 05:52:49;;;;;;;15.48;8.43;;;;;;;;;;2106620;28;20558;-48
2023/01/06 05:53:51;;;;;;;15.55;8.93;;;;;;;;;;2106435;28;20081;-47
2023/01/06 05:54:52;;;;;;;14.45;10.60;;;;;;;;;;2106447;28;20286;-47
2023/01/06 05:55:58;;;;;;;14.27;8.27;;;;;;;;;;2106192;28;20051;-47
2023/01/06 05:56:59;;;;;;;13.70;10.18;;;;;;;;;;2107169;28;20097;-47
2023/01/06 05:58:00;;;;;;;13.13;7.65;;;;;;;;;;2114906;28;20058;-48
2023/01/06 05:59:01;;;;;;;14.17;10.33;;;;;;;;;;2114929;28;20487;-49
2023/01/06 06:00:02;;;;;;;12.95;8.20;;;;;;;;;;2114747;28;20281;-49
2023/01/06 06:01:03;;;;;;;17.52;8.43;;;;;;;;;;2115118;28;20040;-47
2023/01/06 06:02:05;;;;;;;13.10;9.93;;;;;;;;;;2114928;28;20044;-49
2023/01/06 06:03:06;;;;;;;11.48;7.50;;;;;;;;;;2114915;28;20055;-48
2023/01/06 06:04:07;;;;;;;13.43;9.65;;;;;;;;;;2114627;28;20040;-47
2023/01/06 06:05:08;;;;;;;14.83;8.30;;;;;;;;;;2115145;28;20184;-48
2023/01/06 06:06:09;;;;;;;14.50;8.68;;;;;;;;;;2114750;28;20284;-47
2023/01/06 06:07:10;;;;;;;13.88;10.10;;;;;;;;;;2115610;28;20043;-47
2023/01/06 06:08:11;;;;;;;13.85;7.65;;;;;;;;;;2114845;28;20039;-48
2023/01/06 06:09:13;;;;;;;12.52;7.88;;;;;;;;;;2115069;28;20051;-46
2023/01/06 06:10:14;;;;;;;;;;;;;;;;;;2115177;28;20044;-46
2023/01/06 06:11:16;;;;;;;12.50;7.88;;;;;;;;;;2114942;28;20010;-46
2023/01/06 06:12:16;;;;;;;;;;;;;;;;;;2115284;28;20040;-46
2023/01/06 06:13:18;;;;;;;11.43;7.25;;;;;;;;;;2114829;28;20008;-47
2023/01/06 06:14:19;;;;;;;13.65;8.60;;;;;;;;;;2114887;28;20052;-47
2023/01/06 06:15:20;;;;;;;11.63;7.78;;;;;;;;;;2114916;28;20044;-46
2023/01/06 06:16:22;;;;;;;13.10;8.20;;;;;;;;;;2114543;28;20161;-47